sensor_id;sensor_type;location;lat;lon;timestamp;pressure;altitude;pressure_sealevel;temperature;humidity
21096;BME280;10706;49.036;12.112;2022-11-15T00:00:45;97753.91;;;2.85;100.00
21096;BME280;10706;49.036;12.112;2022-11-15T00:03:14;97749.09;;;2.73;100.00
21096;BME280;10706;49.036;12.112;2022-11-15T00:05:41;97758.38;;;2.69;100.00
21096;BME280;10706;49.036;12.112;2022-11-15T00:08:06;97752.31;;;2.69;100.00
21096;BME280;10706;49.036;12.112;2022-11-15T00:10:32;97747.66;;;2.71;100.00
21096;BME280;10706;49.036;12.112;2022-11-15T00:12:58;97741.75;;;2.69;100.00
21096;BME280;10706;49.036;12.112;2022-11-15T00:15:23;97747.13;;;2.61;100.00
21096;BME280;10706;49.036;12.112;2022-11-15T00:17:49;97744.94;;;2.64;100.00
21096;BME280;10706;49.036;12.112;2022-11-15T00:20:17;97737.16;;;2.56;100.00
21096;BME280;10706;49.036;12.112;2022-11-15T00:22:42;97741.16;;;2.52;100.00
21096;BME280;10706;49.036;12.112;2022-11-15T00:25:08;97745.88;;;2.42;100.00
21096;BME280;10706;49.036;12.112;2022-11-15T00:27:34;97750.22;;;2.34;100.00
21096;BME280;10706;49.036;12.112;2022-11-15T00:30:00;97747.34;;;2.29;100.00
21096;BME280;10706;49.036;12.112;2022-11-15T00:32:26;97750.69;;;2.23;100.00
21096;BME280;10706;49.036;12.112;2022-11-15T00:34:52;97739.16;;;2.24;100.00
21096;BME280;10706;49.036;12.112;2022-11-15T00:37:17;97739.78;;;2.26;100.00
21096;BME280;10706;49.036;12.112;2022-11-15T00:39:43;97739.16;;;2.24;100.00
21096;BME280;10706;49.036;12.112;2022-11-15T00:42:09;97737.78;;;2.13;100.00
21096;BME280;10706;49.036;12.112;2022-11-15T00:44:34;97738.69;;;2.06;100.00
21096;BME280;10706;49.036;12.112;2022-11-15T00:47:00;97727.88;;;2.01;100.00
21096;BME280;10706;49.036;12.112;2022-11-15T00:49:26;97726.91;;;2.02;100.00
21096;BME280;10706;49.036;12.112;2022-11-15T00:51:51;97720.19;;;1.99;100.00
21096;BME280;10706;49.036;12.112;2022-11-15T00:54:17;97724.34;;;1.93;100.00
21096;BME280;10706;49.036;12.112;2022-11-15T00:56:43;97721.06;;;1.91;100.00
21096;BME280;10706;49.036;12.112;2022-11-15T00:59:09;97721.97;;;1.99;100.00
21096;BME280;10706;49.036;12.112;2022-11-15T01:01:35;97720.06;;;1.92;100.00
21096;BME280;10706;49.036;12.112;2022-11-15T01:04:00;97716.91;;;1.82;100.00
21096;BME280;10706;49.036;12.112;2022-11-15T01:06:26;97720.53;;;1.81;100.00
21096;BME280;10706;49.036;12.112;2022-11-15T01:08:52;97714.63;;;1.79;100.00
21096;BME280;10706;49.036;12.112;2022-11-15T01:11:17;97714.34;;;1.74;100.00
21096;BME280;10706;49.036;12.112;2022-11-15T01:13:43;97714.59;;;1.64;100.00
21096;BME280;10706;49.036;12.112;2022-11-15T01:16:16;97715.69;;;1.70;100.00
21096;BME280;10706;49.036;12.112;2022-11-15T01:18:42;97710.44;;;1.70;100.00
21096;BME280;10706;49.036;12.112;2022-11-15T01:21:12;97708.16;;;1.67;100.00
21096;BME280;10706;49.036;12.112;2022-11-15T01:23:39;97709.34;;;1.64;100.00
21096;BME280;10706;49.036;12.112;2022-11-15T01:26:09;97704.63;;;1.60;100.00
21096;BME280;10706;49.036;12.112;2022-11-15T01:28:37;97702.97;;;1.59;100.00
21096;BME280;10706;49.036;12.112;2022-11-15T01:31:17;97707.47;;;1.50;100.00
21096;BME280;10706;49.036;12.112;2022-11-15T01:33:43;97701.22;;;1.51;100.00
21096;BME280;10706;49.036;12.112;2022-11-15T01:36:21;97696.22;;;1.41;100.00
21096;BME280;10706;49.036;12.112;2022-11-15T01:38:54;97690.22;;;1.32;100.00
21096;BME280;10706;49.036;12.112;2022-11-15T01:41:29;97690.38;;;1.31;100.00
21096;BME280;10706;49.036;12.112;2022-11-15T01:47:07;97674.16;;;1.42;100.00
21096;BME280;10706;49.036;12.112;2022-11-15T01:49:35;97681.59;;;1.39;100.00
21096;BME280;10706;49.036;12.112;2022-11-15T01:52:07;97679.50;;;1.34;100.00
21096;BME280;10706;49.036;12.112;2022-11-15T01:54:34;97672.81;;;1.31;100.00
21096;BME280;10706;49.036;12.112;2022-11-15T01:57:06;97666.38;;;1.34;100.00
21096;BME280;10706;49.036;12.112;2022-11-15T01:59:34;97662.97;;;1.25;100.00
21096;BME280;10706;49.036;12.112;2022-11-15T02:02:00;97663.16;;;1.24;100.00
21096;BME280;10706;49.036;12.112;2022-11-15T02:04:29;97663.06;;;1.17;100.00
21096;BME280;10706;49.036;12.112;2022-11-15T02:06:57;97655.69;;;1.12;100.00
21096;BME280;10706;49.036;12.112;2022-11-15T02:09:24;97659.19;;;1.05;100.00
21096;BME280;10706;49.036;12.112;2022-11-15T02:11:50;97650.84;;;1.01;100.00
21096;BME280;10706;49.036;12.112;2022-11-15T02:14:18;97649.56;;;0.97;100.00
21096;BME280;10706;49.036;12.112;2022-11-15T02:17:17;97650.75;;;0.94;100.00
21096;BME280;10706;49.036;12.112;2022-11-15T02:23:44;97645.81;;;1.14;100.00
21096;BME280;10706;49.036;12.112;2022-11-15T02:29:38;97640.63;;;1.06;100.00
21096;BME280;10706;49.036;12.112;2022-11-15T02:32:06;97631.63;;;1.01;100.00
21096;BME280;10706;49.036;12.112;2022-11-15T02:42:55;97634.63;;;0.74;100.00
21096;BME280;10706;49.036;12.112;2022-11-15T02:45:48;97627.13;;;0.63;100.00
21096;BME280;10706;49.036;12.112;2022-11-15T02:48:16;97622.81;;;0.70;100.00
21096;BME280;10706;49.036;12.112;2022-11-15T02:50:43;97618.28;;;0.64;100.00
21096;BME280;10706;49.036;12.112;2022-11-15T02:53:09;97623.81;;;0.69;100.00
21096;BME280;10706;49.036;12.112;2022-11-15T02:55:38;97619.25;;;0.63;100.00
21096;BME280;10706;49.036;12.112;2022-11-15T03:01:56;97616.41;;;0.50;100.00
21096;BME280;10706;49.036;12.112;2022-11-15T03:05:03;97617.38;;;0.49;100.00
21096;BME280;10706;49.036;12.112;2022-11-15T03:10:16;97609.09;;;0.60;100.00
21096;BME280;10706;49.036;12.112;2022-11-15T03:12:57;97614.34;;;0.60;100.00
21096;BME280;10706;49.036;12.112;2022-11-15T03:15:31;97611.84;;;0.44;100.00
21096;BME280;10706;49.036;12.112;2022-11-15T03:18:04;97611.22;;;0.33;100.00
21096;BME280;10706;49.036;12.112;2022-11-15T03:20:34;97624.09;;;0.28;100.00
21096;BME280;10706;49.036;12.112;2022-11-15T03:23:07;97629.38;;;0.20;100.00
21096;BME280;10706;49.036;12.112;2022-11-15T03:25:37;97626.88;;;0.27;100.00
21096;BME280;10706;49.036;12.112;2022-11-15T03:28:06;97619.47;;;0.30;100.00
21096;BME280;10706;49.036;12.112;2022-11-15T03:30:36;97608.13;;;0.30;100.00
21096;BME280;10706;49.036;12.112;2022-11-15T03:33:04;97612.06;;;0.34;100.00
21096;BME280;10706;49.036;12.112;2022-11-15T03:35:37;97616.31;;;0.35;100.00
21096;BME280;10706;49.036;12.112;2022-11-15T03:38:26;97616.22;;;0.28;100.00
21096;BME280;10706;49.036;12.112;2022-11-15T03:41:00;97612.06;;;0.34;100.00
21096;BME280;10706;49.036;12.112;2022-11-15T03:46:46;97613.97;;;0.17;100.00
21096;BME280;10706;49.036;12.112;2022-11-15T03:49:38;97609.16;;;0.21;100.00
21096;BME280;10706;49.036;12.112;2022-11-15T03:52:06;97607.66;;;0.26;100.00
21096;BME280;10706;49.036;12.112;2022-11-15T03:54:32;97609.66;;;0.24;100.00
21096;BME280;10706;49.036;12.112;2022-11-15T03:56:58;97601.75;;;0.32;100.00
21096;BME280;10706;49.036;12.112;2022-11-15T03:59:24;97610.47;;;0.25;100.00
21096;BME280;10706;49.036;12.112;2022-11-15T04:01:51;97607.06;;;0.16;100.00
21096;BME280;10706;49.036;12.112;2022-11-15T04:04:17;97607.72;;;0.18;100.00
21096;BME280;10706;49.036;12.112;2022-11-15T04:06:43;97603.09;;;0.28;100.00
21096;BME280;10706;49.036;12.112;2022-11-15T04:09:09;97596.56;;;0.16;100.00
21096;BME280;10706;49.036;12.112;2022-11-15T04:11:35;97594.66;;;0.10;100.00
21096;BME280;10706;49.036;12.112;2022-11-15T04:14:01;97598.56;;;0.14;100.00
21096;BME280;10706;49.036;12.112;2022-11-15T04:16:27;97586.88;;;0.16;100.00
21096;BME280;10706;49.036;12.112;2022-11-15T04:18:53;97584.00;;;0.03;100.00
21096;BME280;10706;49.036;12.112;2022-11-15T04:21:37;97588.56;;;0.09;100.00
21096;BME280;10706;49.036;12.112;2022-11-15T04:24:22;97576.34;;;-0.07;100.00
21096;BME280;10706;49.036;12.112;2022-11-15T04:26:48;97574.06;;;-0.10;100.00
21096;BME280;10706;49.036;12.112;2022-11-15T04:29:14;97573.56;;;-0.05;100.00
21096;BME280;10706;49.036;12.112;2022-11-15T04:31:58;97563.38;;;-0.08;100.00
21096;BME280;10706;49.036;12.112;2022-11-15T04:34:24;97561.56;;;0.01;100.00
21096;BME280;10706;49.036;12.112;2022-11-15T04:36:50;97555.59;;;0.07;100.00
21096;BME280;10706;49.036;12.112;2022-11-15T04:39:35;97557.84;;;0.18;100.00
21096;BME280;10706;49.036;12.112;2022-11-15T04:42:01;97565.78;;;0.02;100.00
21096;BME280;10706;49.036;12.112;2022-11-15T04:44:27;97569.66;;;-0.09;100.00
21096;BME280;10706;49.036;12.112;2022-11-15T04:46:53;97568.81;;;-0.10;100.00
21096;BME280;10706;49.036;12.112;2022-11-15T04:49:19;97567.19;;;-0.11;100.00
21096;BME280;10706;49.036;12.112;2022-11-15T04:51:45;97567.13;;;-0.03;100.00
21096;BME280;10706;49.036;12.112;2022-11-15T04:54:11;97565.47;;;0.05;100.00
21096;BME280;10706;49.036;12.112;2022-11-15T04:56:38;97559.00;;;0.15;100.00
21096;BME280;10706;49.036;12.112;2022-11-15T04:59:04;97564.19;;;0.24;100.00
21096;BME280;10706;49.036;12.112;2022-11-15T05:01:30;97560.69;;;0.31;100.00
21096;BME280;10706;49.036;12.112;2022-11-15T05:03:56;97561.34;;;0.33;100.00
21096;BME280;10706;49.036;12.112;2022-11-15T05:06:40;97557.38;;;0.37;100.00
21096;BME280;10706;49.036;12.112;2022-11-15T05:09:06;97563.69;;;0.51;100.00
21096;BME280;10706;49.036;12.112;2022-11-15T05:11:32;97558.78;;;0.48;100.00
21096;BME280;10706;49.036;12.112;2022-11-15T05:13:58;97552.81;;;0.54;100.00
21096;BME280;10706;49.036;12.112;2022-11-15T05:16:24;97545.13;;;0.53;100.00
21096;BME280;10706;49.036;12.112;2022-11-15T05:18:54;97549.91;;;0.49;100.00
21096;BME280;10706;49.036;12.112;2022-11-15T05:21:20;97539.94;;;0.45;100.00
21096;BME280;10706;49.036;12.112;2022-11-15T05:23:46;97537.47;;;0.43;100.00
21096;BME280;10706;49.036;12.112;2022-11-15T05:26:13;97540.75;;;0.45;100.00
21096;BME280;10706;49.036;12.112;2022-11-15T05:28:40;97531.72;;;0.48;100.00
21096;BME280;10706;49.036;12.112;2022-11-15T05:31:12;97537.13;;;0.46;100.00
21096;BME280;10706;49.036;12.112;2022-11-15T05:33:40;97530.25;;;0.45;100.00
21096;BME280;10706;49.036;12.112;2022-11-15T05:38:49;97536.72;;;0.34;100.00
21096;BME280;10706;49.036;12.112;2022-11-15T05:41:19;97535.09;;;0.33;100.00
21096;BME280;10706;49.036;12.112;2022-11-15T05:43:46;97534.28;;;0.33;100.00
21096;BME280;10706;49.036;12.112;2022-11-15T05:46:13;97530.19;;;0.30;100.00
21096;BME280;10706;49.036;12.112;2022-11-15T05:48:43;97530.19;;;0.30;100.00
21096;BME280;10706;49.036;12.112;2022-11-15T05:51:13;97532.81;;;0.30;100.00
21096;BME280;10706;49.036;12.112;2022-11-15T05:53:41;97533.88;;;0.21;100.00
21096;BME280;10706;49.036;12.112;2022-11-15T05:56:08;97537.16;;;0.15;100.00
21096;BME280;10706;49.036;12.112;2022-11-15T05:58:35;97534.44;;;0.08;100.00
21096;BME280;10706;49.036;12.112;2022-11-15T06:01:01;97540.03;;;0.05;100.00
21096;BME280;10706;49.036;12.112;2022-11-15T06:03:28;97532.78;;;0.07;100.00
21096;BME280;10706;49.036;12.112;2022-11-15T06:05:54;97526.91;;;0.05;100.00
21096;BME280;10706;49.036;12.112;2022-11-15T06:08:20;97528.53;;;0.06;100.00
21096;BME280;10706;49.036;12.112;2022-11-15T06:10:46;97526.09;;;0.05;100.00
21096;BME280;10706;49.036;12.112;2022-11-15T06:13:12;97526.09;;;0.05;100.00
21096;BME280;10706;49.036;12.112;2022-11-15T06:15:38;97531.69;;;0.02;100.00
21096;BME280;10706;49.036;12.112;2022-11-15T06:18:04;97532.16;;;0.05;100.00
21096;BME280;10706;49.036;12.112;2022-11-15T06:20:30;97533.44;;;0.09;100.00
21096;BME280;10706;49.036;12.112;2022-11-15T06:22:58;97526.66;;;0.15;100.00
21096;BME280;10706;49.036;12.112;2022-11-15T06:25:25;97526.72;;;0.07;100.00
21096;BME280;10706;49.036;12.112;2022-11-15T06:27:58;97523.41;;;0.13;100.00
21096;BME280;10706;49.036;12.112;2022-11-15T06:30:26;97528.53;;;0.06;100.00
21096;BME280;10706;49.036;12.112;2022-11-15T06:32:58;97522.59;;;0.12;100.00
21096;BME280;10706;49.036;12.112;2022-11-15T06:35:24;97523.59;;;0.11;100.00
21096;BME280;10706;49.036;12.112;2022-11-15T06:37:50;97524.25;;;0.13;100.00
21096;BME280;10706;49.036;12.112;2022-11-15T06:40:16;97518.13;;;0.21;100.00
21096;BME280;10706;49.036;12.112;2022-11-15T06:42:42;97513.53;;;0.15;100.00
21096;BME280;10706;49.036;12.112;2022-11-15T06:45:08;97514.56;;;0.14;100.00
21096;BME280;10706;49.036;12.112;2022-11-15T06:47:34;97524.25;;;0.13;100.00
21096;BME280;10706;49.036;12.112;2022-11-15T06:50:00;97521.56;;;0.22;100.00
21096;BME280;10706;49.036;12.112;2022-11-15T06:52:26;97530.06;;;0.24;100.00
21096;BME280;10706;49.036;12.112;2022-11-15T06:54:52;97526.94;;;0.28;100.00
21096;BME280;10706;49.036;12.112;2022-11-15T06:57:18;97533.50;;;0.24;100.00
21096;BME280;10706;49.036;12.112;2022-11-15T06:59:44;97529.38;;;0.30;100.00
21096;BME280;10706;49.036;12.112;2022-11-15T07:02:13;97526.41;;;0.33;100.00
21096;BME280;10706;49.036;12.112;2022-11-15T07:04:39;97530.78;;;0.41;100.00
21096;BME280;10706;49.036;12.112;2022-11-15T07:07:06;97537.38;;;0.36;100.00
21096;BME280;10706;49.036;12.112;2022-11-15T07:09:32;97546.22;;;0.35;100.00
21096;BME280;10706;49.036;12.112;2022-11-15T07:11:58;97549.06;;;0.34;100.00
21096;BME280;10706;49.036;12.112;2022-11-15T07:14:24;97542.16;;;0.33;100.00
21096;BME280;10706;49.036;12.112;2022-11-15T07:16:50;97540.81;;;0.37;100.00
21096;BME280;10706;49.036;12.112;2022-11-15T07:19:16;97541.09;;;0.42;100.00
21096;BME280;10706;49.036;12.112;2022-11-15T07:21:42;97535.91;;;0.57;100.00
21096;BME280;10706;49.036;12.112;2022-11-15T07:24:08;97536.47;;;0.67;100.00
21096;BME280;10706;49.036;12.112;2022-11-15T07:26:34;97538.97;;;0.84;100.00
21096;BME280;10706;49.036;12.112;2022-11-15T07:29:00;97540.69;;;0.91;100.00
21096;BME280;10706;49.036;12.112;2022-11-15T07:31:26;97532.28;;;0.96;100.00
21096;BME280;10706;49.036;12.112;2022-11-15T07:33:53;97538.53;;;0.95;100.00
21096;BME280;10706;49.036;12.112;2022-11-15T07:36:19;97532.47;;;0.94;100.00
21096;BME280;10706;49.036;12.112;2022-11-15T07:38:45;97537.00;;;1.01;100.00
21096;BME280;10706;49.036;12.112;2022-11-15T07:41:11;97532.31;;;1.11;100.00
21096;BME280;10706;49.036;12.112;2022-11-15T07:43:37;97522.50;;;1.20;100.00
21096;BME280;10706;49.036;12.112;2022-11-15T07:46:08;97525.25;;;1.26;100.00
21096;BME280;10706;49.036;12.112;2022-11-15T07:48:36;97524.41;;;1.26;100.00
21096;BME280;10706;49.036;12.112;2022-11-15T07:51:02;97515.63;;;1.33;100.00
21096;BME280;10706;49.036;12.112;2022-11-15T07:53:28;97523.59;;;1.55;100.00
21096;BME280;10706;49.036;12.112;2022-11-15T07:55:55;97523.69;;;1.62;100.00
21096;BME280;10706;49.036;12.112;2022-11-15T07:58:21;97528.72;;;1.78;100.00
21096;BME280;10706;49.036;12.112;2022-11-15T08:00:47;97528.47;;;1.88;100.00
21096;BME280;10706;49.036;12.112;2022-11-15T08:03:15;97517.69;;;2.04;100.00
21096;BME280;10706;49.036;12.112;2022-11-15T08:05:43;97518.66;;;2.18;100.00
21096;BME280;10706;49.036;12.112;2022-11-15T08:08:15;97513.34;;;2.33;100.00
21096;BME280;10706;49.036;12.112;2022-11-15T08:10:41;97511.03;;;2.51;100.00
21096;BME280;10706;49.036;12.112;2022-11-15T08:13:10;97512.03;;;2.72;100.00
21096;BME280;10706;49.036;12.112;2022-11-15T08:15:37;97505.34;;;2.69;100.00
21096;BME280;10706;49.036;12.112;2022-11-15T08:18:08;97510.44;;;2.78;100.00
21096;BME280;10706;49.036;12.112;2022-11-15T08:20:35;97510.53;;;2.84;100.00
21096;BME280;10706;49.036;12.112;2022-11-15T08:23:03;97504.28;;;2.92;100.00
21096;BME280;10706;49.036;12.112;2022-11-15T08:25:31;97505.53;;;2.96;100.00
21096;BME280;10706;49.036;12.112;2022-11-15T08:28:03;97494.94;;;3.18;99.26
21096;BME280;10706;49.036;12.112;2022-11-15T08:30:30;97504.06;;;3.22;100.00
21096;BME280;10706;49.036;12.112;2022-11-15T08:32:58;97498.84;;;3.28;99.77
21096;BME280;10706;49.036;12.112;2022-11-15T08:35:24;97500.47;;;3.29;100.00
21096;BME280;10706;49.036;12.112;2022-11-15T08:37:52;97491.00;;;3.42;99.16
21096;BME280;10706;49.036;12.112;2022-11-15T08:40:18;97487.75;;;3.46;98.66
21096;BME280;10706;49.036;12.112;2022-11-15T08:42:46;97487.16;;;3.44;97.93
21096;BME280;10706;49.036;12.112;2022-11-15T08:45:13;97488.63;;;3.54;98.18
21096;BME280;10706;49.036;12.112;2022-11-15T08:47:39;97494.13;;;3.59;98.77
21096;BME280;10706;49.036;12.112;2022-11-15T08:50:06;97490.03;;;3.56;97.81
21096;BME280;10706;49.036;12.112;2022-11-15T08:52:32;97490.31;;;3.68;96.42
21096;BME280;10706;49.036;12.112;2022-11-15T08:54:58;97485.66;;;3.77;97.63
21096;BME280;10706;49.036;12.112;2022-11-15T08:57:24;97484.66;;;3.84;96.52
21096;BME280;10706;49.036;12.112;2022-11-15T08:59:50;97492.25;;;4.07;95.76
21096;BME280;10706;49.036;12.112;2022-11-15T09:02:17;97484.94;;;4.09;95.86
21096;BME280;10706;49.036;12.112;2022-11-15T09:04:44;97490.06;;;4.38;96.02
21096;BME280;10706;49.036;12.112;2022-11-15T09:07:11;97478.09;;;4.42;96.16
21096;BME280;10706;49.036;12.112;2022-11-15T09:09:37;97483.38;;;4.55;95.89
21096;BME280;10706;49.036;12.112;2022-11-15T09:12:05;97467.09;;;4.72;96.48
21096;BME280;10706;49.036;12.112;2022-11-15T09:14:31;97473.41;;;4.77;93.27
21096;BME280;10706;49.036;12.112;2022-11-15T09:16:57;97467.72;;;4.94;94.11
21096;BME280;10706;49.036;12.112;2022-11-15T09:19:23;97464.63;;;5.03;93.50
21096;BME280;10706;49.036;12.112;2022-11-15T09:21:50;97457.63;;;5.36;91.85
21096;BME280;10706;49.036;12.112;2022-11-15T09:24:16;97448.63;;;5.43;92.55
21096;BME280;10706;49.036;12.112;2022-11-15T09:26:43;97444.97;;;5.44;90.90
21096;BME280;10706;49.036;12.112;2022-11-15T09:29:09;97447.19;;;5.48;91.96
21096;BME280;10706;49.036;12.112;2022-11-15T09:31:36;97450.22;;;5.58;91.61
21096;BME280;10706;49.036;12.112;2022-11-15T09:34:02;97438.44;;;5.85;89.88
21096;BME280;10706;49.036;12.112;2022-11-15T09:36:28;97444.97;;;5.90;90.34
21096;BME280;10706;49.036;12.112;2022-11-15T09:38:54;97442.69;;;6.00;90.29
21096;BME280;10706;49.036;12.112;2022-11-15T09:50:51;97431.94;;;6.52;88.74
21096;BME280;10706;49.036;12.112;2022-11-15T09:54:26;97431.50;;;6.55;90.23
21096;BME280;10706;49.036;12.112;2022-11-15T09:56:45;97426.41;;;6.78;88.99
21096;BME280;10706;49.036;12.112;2022-11-15T09:59:38;97425.72;;;6.83;87.85
21096;BME280;10706;49.036;12.112;2022-11-15T10:04:35;97423.22;;;7.13;87.01
21096;BME280;10706;49.036;12.112;2022-11-15T10:12:53;97414.41;;;7.50;84.91
21096;BME280;10706;49.036;12.112;2022-11-15T10:15:20;97410.72;;;7.51;84.28
21096;BME280;10706;49.036;12.112;2022-11-15T10:20:52;97395.47;;;7.76;84.68
21096;BME280;10706;49.036;12.112;2022-11-15T10:23:23;97383.63;;;7.91;83.43
21096;BME280;10706;49.036;12.112;2022-11-15T10:25:57;97378.75;;;7.88;84.57
21096;BME280;10706;49.036;12.112;2022-11-15T10:28:31;97378.31;;;8.03;84.11
21096;BME280;10706;49.036;12.112;2022-11-15T10:30:59;97366.53;;;8.10;83.33
21096;BME280;10706;49.036;12.112;2022-11-15T10:33:29;97366.59;;;8.22;83.37
21096;BME280;10706;49.036;12.112;2022-11-15T10:41:21;97349.53;;;8.65;82.20
21096;BME280;10706;49.036;12.112;2022-11-15T10:44:21;97347.41;;;8.79;81.92
21096;BME280;10706;49.036;12.112;2022-11-15T10:49:30;97327.50;;;8.82;81.69
21096;BME280;10706;49.036;12.112;2022-11-15T10:51:58;97318.91;;;9.03;81.58
21096;BME280;10706;49.036;12.112;2022-11-15T10:57:50;97301.94;;;9.21;81.18
21096;BME280;10706;49.036;12.112;2022-11-15T11:00:04;97302.25;;;9.37;81.65
21096;BME280;10706;49.036;12.112;2022-11-15T11:02:37;97294.44;;;9.47;80.46
21096;BME280;10706;49.036;12.112;2022-11-15T11:10:36;97284.47;;;9.88;78.91
21096;BME280;10706;49.036;12.112;2022-11-15T11:13:22;97277.03;;;10.07;77.85
21096;BME280;10706;49.036;12.112;2022-11-15T11:16:00;97268.28;;;10.11;76.65
21096;BME280;10706;49.036;12.112;2022-11-15T11:25:34;97260.84;;;10.47;75.09
21096;BME280;10706;49.036;12.112;2022-11-15T11:31:06;97257.00;;;10.60;75.34
21096;BME280;10706;49.036;12.112;2022-11-15T11:34:19;97252.84;;;10.69;75.37
21096;BME280;10706;49.036;12.112;2022-11-15T11:49:09;97222.59;;;11.08;72.87
21096;BME280;10706;49.036;12.112;2022-11-15T11:54:52;97212.06;;;11.23;72.20
21096;BME280;10706;49.036;12.112;2022-11-15T12:00:25;97202.59;;;11.38;71.34
21096;BME280;10706;49.036;12.112;2022-11-15T12:03:35;97205.13;;;11.87;75.16
21096;BME280;10706;49.036;12.112;2022-11-15T12:12:34;97184.47;;;12.78;66.50
21096;BME280;10706;49.036;12.112;2022-11-15T12:15:15;97187.00;;;13.20;65.71
21096;BME280;10706;49.036;12.112;2022-11-15T12:17:42;97185.97;;;13.88;63.60
21096;BME280;10706;49.036;12.112;2022-11-15T12:20:17;97177.88;;;14.24;62.81
21096;BME280;10706;49.036;12.112;2022-11-15T12:25:50;97168.25;;;13.97;62.09
21096;BME280;10706;49.036;12.112;2022-11-15T12:28:39;97164.16;;;14.26;61.27
21096;BME280;10706;49.036;12.112;2022-11-15T12:33:44;97157.56;;;15.57;56.12
21096;BME280;10706;49.036;12.112;2022-11-15T12:39:10;97148.84;;;15.41;55.41
21096;BME280;10706;49.036;12.112;2022-11-15T12:41:42;97145.06;;;15.77;56.09
21096;BME280;10706;49.036;12.112;2022-11-15T12:59:52;97120.34;;;16.47;51.23
21096;BME280;10706;49.036;12.112;2022-11-15T13:02:35;97121.88;;;16.53;52.57
21096;BME280;10706;49.036;12.112;2022-11-15T13:17:53;97109.75;;;18.39;46.98
21096;BME280;10706;49.036;12.112;2022-11-15T13:20:30;97113.84;;;18.22;47.47
21096;BME280;10706;49.036;12.112;2022-11-15T13:23:13;97112.38;;;17.37;48.94
21096;BME280;10706;49.036;12.112;2022-11-15T13:26:16;97117.25;;;17.35;49.41
21096;BME280;10706;49.036;12.112;2022-11-15T13:28:45;97105.41;;;17.49;48.96
21096;BME280;10706;49.036;12.112;2022-11-15T13:31:42;97113.19;;;17.18;49.45
21096;BME280;10706;49.036;12.112;2022-11-15T13:34:35;97108.63;;;16.76;49.86
21096;BME280;10706;49.036;12.112;2022-11-15T13:37:26;97107.16;;;16.88;50.64
21096;BME280;10706;49.036;12.112;2022-11-15T13:39:53;97109.47;;;16.76;50.96
21096;BME280;10706;49.036;12.112;2022-11-15T13:42:20;97106.31;;;16.50;51.63
21096;BME280;10706;49.036;12.112;2022-11-15T13:45:02;97105.06;;;17.04;50.11
21096;BME280;10706;49.036;12.112;2022-11-15T13:47:29;97108.16;;;16.49;51.88
21096;BME280;10706;49.036;12.112;2022-11-15T13:49:59;97104.69;;;16.01;53.00
21096;BME280;10706;49.036;12.112;2022-11-15T13:52:33;97106.84;;;15.74;53.89
21096;BME280;10706;49.036;12.112;2022-11-15T13:55:14;97101.84;;;15.58;53.95
21096;BME280;10706;49.036;12.112;2022-11-15T13:57:48;97094.94;;;15.17;55.45
21096;BME280;10706;49.036;12.112;2022-11-15T14:00:29;97090.47;;;14.52;57.31
21096;BME280;10706;49.036;12.112;2022-11-15T14:02:56;97090.81;;;14.35;59.07
21096;BME280;10706;49.036;12.112;2022-11-15T14:05:24;97086.91;;;14.07;59.83
21096;BME280;10706;49.036;12.112;2022-11-15T14:07:54;97083.16;;;13.98;60.06
21096;BME280;10706;49.036;12.112;2022-11-15T14:10:33;97077.53;;;13.94;59.29
21096;BME280;10706;49.036;12.112;2022-11-15T14:13:01;97082.41;;;13.87;59.83
21096;BME280;10706;49.036;12.112;2022-11-15T14:15:39;97070.53;;;14.04;59.27
21096;BME280;10706;49.036;12.112;2022-11-15T14:18:06;97072.63;;;14.17;59.70
21096;BME280;10706;49.036;12.112;2022-11-15T14:42:31;97048.84;;;12.46;65.50
21096;BME280;10706;49.036;12.112;2022-11-15T14:44:57;97038.31;;;12.03;68.12
21096;BME280;10706;49.036;12.112;2022-11-15T14:47:23;97031.88;;;11.99;68.53
21096;BME280;10706;49.036;12.112;2022-11-15T14:49:49;97031.75;;;11.84;69.30
21096;BME280;10706;49.036;12.112;2022-11-15T14:52:29;97023.38;;;11.65;69.66
21096;BME280;10706;49.036;12.112;2022-11-15T14:54:56;97022.25;;;11.51;70.77
21096;BME280;10706;49.036;12.112;2022-11-15T14:57:23;97022.91;;;11.31;71.92
21096;BME280;10706;49.036;12.112;2022-11-15T14:59:49;97015.31;;;11.12;73.03
21096;BME280;10706;49.036;12.112;2022-11-15T15:02:25;97010.69;;;11.02;73.62
21096;BME280;10706;49.036;12.112;2022-11-15T15:04:53;97013.50;;;10.85;74.36
21096;BME280;10706;49.036;12.112;2022-11-15T15:07:19;97010.19;;;10.73;74.48
21096;BME280;10706;49.036;12.112;2022-11-15T15:09:46;97011.16;;;10.62;75.13
21096;BME280;10706;49.036;12.112;2022-11-15T15:12:20;97003.38;;;10.55;75.86
21096;BME280;10706;49.036;12.112;2022-11-15T15:14:49;97002.44;;;10.44;76.31
21096;BME280;10706;49.036;12.112;2022-11-15T15:17:16;96995.66;;;10.31;76.36
21096;BME280;10706;49.036;12.112;2022-11-15T15:19:45;96988.56;;;10.20;77.62
21096;BME280;10706;49.036;12.112;2022-11-15T15:22:17;96985.25;;;10.08;77.95
21096;BME280;10706;49.036;12.112;2022-11-15T15:24:47;96992.09;;;9.99;78.91
21096;BME280;10706;49.036;12.112;2022-11-15T15:27:14;96990.53;;;9.81;79.82
21096;BME280;10706;49.036;12.112;2022-11-15T15:29:42;96994.63;;;9.66;79.99
21096;BME280;10706;49.036;12.112;2022-11-15T15:32:10;96994.97;;;9.53;80.55
21096;BME280;10706;49.036;12.112;2022-11-15T15:34:36;97003.84;;;9.37;80.89
21096;BME280;10706;49.036;12.112;2022-11-15T15:37:18;96995.06;;;9.19;81.26
21096;BME280;10706;49.036;12.112;2022-11-15T15:39:45;96995.06;;;9.02;83.15
21096;BME280;10706;49.036;12.112;2022-11-15T15:42:11;96994.53;;;8.83;84.23
21096;BME280;10706;49.036;12.112;2022-11-15T15:44:36;96987.41;;;8.72;83.81
21096;BME280;10706;49.036;12.112;2022-11-15T15:47:11;96995.63;;;8.53;85.70
21096;BME280;10706;49.036;12.112;2022-11-15T15:49:37;96990.94;;;8.44;84.97